sensor_id;sensor_type;location;lat;lon;timestamp;temperature;humidity
680;DHT22;322;48.846;9.230;2024-02-26T00:02:24;7.60;99.90
680;DHT22;322;48.846;9.230;2024-02-26T00:04:52;7.50;99.40
680;DHT22;322;48.846;9.230;2024-02-26T00:07:20;7.40;98.90
680;DHT22;322;48.846;9.230;2024-02-26T00:09:48;7.40;99.50
680;DHT22;322;48.846;9.230;2024-02-26T00:12:17;7.50;99.90
680;DHT22;322;48.846;9.230;2024-02-26T00:14:45;7.40;99.40
680;DHT22;322;48.846;9.230;2024-02-26T00:17:15;7.30;99.90
680;DHT22;322;48.846;9.230;2024-02-26T00:19:43;7.30;99.80
680;DHT22;322;48.846;9.230;2024-02-26T00:22:11;7.30;99.80
680;DHT22;322;48.846;9.230;2024-02-26T00:24:40;7.30;99.90
680;DHT22;322;48.846;9.230;2024-02-26T00:27:08;7.30;99.80
680;DHT22;322;48.846;9.230;2024-02-26T00:29:37;7.20;99.90
680;DHT22;322;48.846;9.230;2024-02-26T00:32:05;7.30;99.90
680;DHT22;322;48.846;9.230;2024-02-26T00:34:34;7.40;99.90
680;DHT22;322;48.846;9.230;2024-02-26T00:37:02;7.50;99.90
680;DHT22;322;48.846;9.230;2024-02-26T00:39:30;7.40;99.90
680;DHT22;322;48.846;9.230;2024-02-26T00:41:58;7.30;99.90
680;DHT22;322;48.846;9.230;2024-02-26T00:44:26;7.30;99.90
680;DHT22;322;48.846;9.230;2024-02-26T00:46:55;7.40;99.90
680;DHT22;322;48.846;9.230;2024-02-26T00:49:23;7.30;99.90
680;DHT22;322;48.846;9.230;2024-02-26T00:51:51;7.50;99.90
680;DHT22;322;48.846;9.230;2024-02-26T00:54:19;7.60;99.40
680;DHT22;322;48.846;9.230;2024-02-26T00:56:47;7.50;99.50
680;DHT22;322;48.846;9.230;2024-02-26T00:59:15;7.40;99.90
680;DHT22;322;48.846;9.230;2024-02-26T01:01:43;7.40;99.90
680;DHT22;322;48.846;9.230;2024-02-26T01:04:12;7.30;99.70
680;DHT22;322;48.846;9.230;2024-02-26T01:06:40;7.30;99.40
680;DHT22;322;48.846;9.230;2024-02-26T01:09:08;7.40;98.80
680;DHT22;322;48.846;9.230;2024-02-26T01:11:36;7.60;99.10
680;DHT22;322;48.846;9.230;2024-02-26T01:14:04;7.70;98.90
680;DHT22;322;48.846;9.230;2024-02-26T01:16:32;7.80;97.90
680;DHT22;322;48.846;9.230;2024-02-26T01:19:00;7.70;98.20
680;DHT22;322;48.846;9.230;2024-02-26T01:21:31;7.60;98.60
680;DHT22;322;48.846;9.230;2024-02-26T01:23:59;7.70;98.80
680;DHT22;322;48.846;9.230;2024-02-26T01:26:26;7.60;98.50
680;DHT22;322;48.846;9.230;2024-02-26T01:28:54;7.50;99.10
680;DHT22;322;48.846;9.230;2024-02-26T01:31:22;7.50;98.20
680;DHT22;322;48.846;9.230;2024-02-26T01:33:50;7.60;97.50
680;DHT22;322;48.846;9.230;2024-02-26T01:36:19;7.60;99.00
680;DHT22;322;48.846;9.230;2024-02-26T01:38:49;7.60;98.60
680;DHT22;322;48.846;9.230;2024-02-26T01:41:17;7.50;97.50
680;DHT22;322;48.846;9.230;2024-02-26T01:43:45;7.50;98.10
680;DHT22;322;48.846;9.230;2024-02-26T01:46:14;7.50;99.50
680;DHT22;322;48.846;9.230;2024-02-26T01:48:44;7.50;99.90
680;DHT22;322;48.846;9.230;2024-02-26T01:51:14;7.40;99.90
680;DHT22;322;48.846;9.230;2024-02-26T01:53:44;7.30;99.80
680;DHT22;322;48.846;9.230;2024-02-26T01:56:15;7.20;99.50
680;DHT22;322;48.846;9.230;2024-02-26T01:58:45;7.20;99.90
680;DHT22;322;48.846;9.230;2024-02-26T02:01:14;7.20;99.90
680;DHT22;322;48.846;9.230;2024-02-26T02:03:43;7.20;99.90
680;DHT22;322;48.846;9.230;2024-02-26T02:06:12;7.20;99.90
680;DHT22;322;48.846;9.230;2024-02-26T02:08:41;7.10;99.90
680;DHT22;322;48.846;9.230;2024-02-26T02:11:09;7.20;99.90
680;DHT22;322;48.846;9.230;2024-02-26T02:13:39;7.10;99.90
680;DHT22;322;48.846;9.230;2024-02-26T02:16:07;7.20;99.90
680;DHT22;322;48.846;9.230;2024-02-26T02:18:35;7.10;99.90
680;DHT22;322;48.846;9.230;2024-02-26T02:21:05;7.10;99.90
680;DHT22;322;48.846;9.230;2024-02-26T02:23:33;7.10;99.90
680;DHT22;322;48.846;9.230;2024-02-26T02:26:01;7.10;99.90
680;DHT22;322;48.846;9.230;2024-02-26T02:28:29;7.20;99.90
680;DHT22;322;48.846;9.230;2024-02-26T02:30:58;7.20;99.90
680;DHT22;322;48.846;9.230;2024-02-26T02:33:27;7.10;99.90
680;DHT22;322;48.846;9.230;2024-02-26T02:35:55;7.10;99.90
680;DHT22;322;48.846;9.230;2024-02-26T02:38:26;7.10;99.90
680;DHT22;322;48.846;9.230;2024-02-26T02:40:56;7.10;99.90
680;DHT22;322;48.846;9.230;2024-02-26T02:43:24;7.00;99.90
680;DHT22;322;48.846;9.230;2024-02-26T02:45:52;6.90;99.90
680;DHT22;322;48.846;9.230;2024-02-26T02:48:20;6.90;99.90
680;DHT22;322;48.846;9.230;2024-02-26T02:50:48;6.80;99.90
680;DHT22;322;48.846;9.230;2024-02-26T02:53:16;6.80;99.90
680;DHT22;322;48.846;9.230;2024-02-26T02:55:46;6.80;99.90
680;DHT22;322;48.846;9.230;2024-02-26T02:58:14;6.90;99.90
680;DHT22;322;48.846;9.230;2024-02-26T03:00:42;7.10;99.90
680;DHT22;322;48.846;9.230;2024-02-26T03:03:11;7.20;99.90
680;DHT22;322;48.846;9.230;2024-02-26T03:05:38;7.20;99.90
680;DHT22;322;48.846;9.230;2024-02-26T03:08:06;7.10;99.90
680;DHT22;322;48.846;9.230;2024-02-26T03:10:35;7.00;99.90
680;DHT22;322;48.846;9.230;2024-02-26T03:13:04;7.00;99.90
680;DHT22;322;48.846;9.230;2024-02-26T03:15:33;7.00;99.90
680;DHT22;322;48.846;9.230;2024-02-26T03:18:01;7.00;99.90
680;DHT22;322;48.846;9.230;2024-02-26T03:20:29;7.00;99.90
680;DHT22;322;48.846;9.230;2024-02-26T03:22:57;7.00;99.90
680;DHT22;322;48.846;9.230;2024-02-26T03:25:25;7.00;99.90
680;DHT22;322;48.846;9.230;2024-02-26T03:27:53;7.00;99.90
680;DHT22;322;48.846;9.230;2024-02-26T03:30:22;6.90;99.90
680;DHT22;322;48.846;9.230;2024-02-26T03:32:51;6.90;99.90
680;DHT22;322;48.846;9.230;2024-02-26T03:35:20;7.00;99.90
680;DHT22;322;48.846;9.230;2024-02-26T03:37:48;7.00;99.90
680;DHT22;322;48.846;9.230;2024-02-26T03:40:18;6.90;99.90
680;DHT22;322;48.846;9.230;2024-02-26T03:42:46;6.90;99.90
680;DHT22;322;48.846;9.230;2024-02-26T03:45:14;6.80;99.90
680;DHT22;322;48.846;9.230;2024-02-26T03:47:43;6.80;99.90
680;DHT22;322;48.846;9.230;2024-02-26T03:50:11;6.80;99.90
680;DHT22;322;48.846;9.230;2024-02-26T03:52:39;6.80;99.90
680;DHT22;322;48.846;9.230;2024-02-26T03:55:08;6.80;99.90
680;DHT22;322;48.846;9.230;2024-02-26T03:57:36;6.70;99.90
680;DHT22;322;48.846;9.230;2024-02-26T04:00:05;6.70;99.90
680;DHT22;322;48.846;9.230;2024-02-26T04:02:33;6.70;99.90
680;DHT22;322;48.846;9.230;2024-02-26T04:05:03;6.70;99.90
680;DHT22;322;48.846;9.230;2024-02-26T04:07:31;6.70;99.90
680;DHT22;322;48.846;9.230;2024-02-26T04:09:59;6.70;99.90
680;DHT22;322;48.846;9.230;2024-02-26T04:12:31;6.70;99.90
680;DHT22;322;48.846;9.230;2024-02-26T04:14:59;6.60;99.90
680;DHT22;322;48.846;9.230;2024-02-26T04:17:27;6.60;99.90
680;DHT22;322;48.846;9.230;2024-02-26T04:19:55;6.70;99.90
680;DHT22;322;48.846;9.230;2024-02-26T04:22:24;6.80;99.90
680;DHT22;322;48.846;9.230;2024-02-26T04:24:52;6.80;99.90
680;DHT22;322;48.846;9.230;2024-02-26T04:27:20;6.70;99.90
680;DHT22;322;48.846;9.230;2024-02-26T04:29:48;6.60;99.90
680;DHT22;322;48.846;9.230;2024-02-26T04:32:16;6.70;99.90
680;DHT22;322;48.846;9.230;2024-02-26T04:34:44;6.70;99.90
680;DHT22;322;48.846;9.230;2024-02-26T04:37:12;6.70;99.90
680;DHT22;322;48.846;9.230;2024-02-26T04:39:42;6.70;99.90
680;DHT22;322;48.846;9.230;2024-02-26T04:42:10;6.60;99.90
680;DHT22;322;48.846;9.230;2024-02-26T04:44:38;6.70;99.90
680;DHT22;322;48.846;9.230;2024-02-26T04:47:06;6.70;99.90
680;DHT22;322;48.846;9.230;2024-02-26T04:49:34;6.80;99.90
680;DHT22;322;48.846;9.230;2024-02-26T04:52:02;6.90;99.90
680;DHT22;322;48.846;9.230;2024-02-26T04:54:30;6.80;99.90
680;DHT22;322;48.846;9.230;2024-02-26T04:57:00;6.90;99.90
680;DHT22;322;48.846;9.230;2024-02-26T04:59:28;7.00;99.90
680;DHT22;322;48.846;9.230;2024-02-26T05:01:55;7.00;99.90
680;DHT22;322;48.846;9.230;2024-02-26T05:04:23;7.00;99.90
680;DHT22;322;48.846;9.230;2024-02-26T05:06:52;7.00;99.90
680;DHT22;322;48.846;9.230;2024-02-26T05:09:22;7.00;99.90
680;DHT22;322;48.846;9.230;2024-02-26T05:11:51;7.00;99.90
680;DHT22;322;48.846;9.230;2024-02-26T05:14:21;6.90;99.90
680;DHT22;322;48.846;9.230;2024-02-26T05:16:49;6.90;99.90
680;DHT22;322;48.846;9.230;2024-02-26T05:19:18;6.90;99.90
680;DHT22;322;48.846;9.230;2024-02-26T05:21:46;6.90;99.90
680;DHT22;322;48.846;9.230;2024-02-26T05:24:16;6.90;99.90
680;DHT22;322;48.846;9.230;2024-02-26T05:26:45;7.10;99.90
680;DHT22;322;48.846;9.230;2024-02-26T05:29:13;7.10;99.90
680;DHT22;322;48.846;9.230;2024-02-26T05:31:43;7.20;99.90
680;DHT22;322;48.846;9.230;2024-02-26T05:34:11;7.20;99.90
680;DHT22;322;48.846;9.230;2024-02-26T05:36:40;7.20;99.90
680;DHT22;322;48.846;9.230;2024-02-26T05:39:08;7.20;99.90
680;DHT22;322;48.846;9.230;2024-02-26T05:41:43;7.20;99.90
680;DHT22;322;48.846;9.230;2024-02-26T05:44:11;7.20;99.90
680;DHT22;322;48.846;9.230;2024-02-26T05:46:39;7.20;99.90
680;DHT22;322;48.846;9.230;2024-02-26T05:49:10;7.10;99.90
680;DHT22;322;48.846;9.230;2024-02-26T05:51:38;7.20;99.90
680;DHT22;322;48.846;9.230;2024-02-26T05:54:06;7.10;99.90
680;DHT22;322;48.846;9.230;2024-02-26T05:56:35;6.90;99.90
680;DHT22;322;48.846;9.230;2024-02-26T05:59:03;6.80;99.90
680;DHT22;322;48.846;9.230;2024-02-26T06:01:31;6.80;99.90
680;DHT22;322;48.846;9.230;2024-02-26T06:04:00;6.80;99.90
680;DHT22;322;48.846;9.230;2024-02-26T06:06:29;6.70;99.90
680;DHT22;322;48.846;9.230;2024-02-26T06:08:57;6.50;99.90
680;DHT22;322;48.846;9.230;2024-02-26T06:11:25;6.30;99.90
680;DHT22;322;48.846;9.230;2024-02-26T06:13:54;6.30;99.90
680;DHT22;322;48.846;9.230;2024-02-26T06:16:22;6.30;99.90
680;DHT22;322;48.846;9.230;2024-02-26T06:18:50;6.30;99.90
680;DHT22;322;48.846;9.230;2024-02-26T06:21:18;6.20;99.90
680;DHT22;322;48.846;9.230;2024-02-26T06:23:48;6.10;99.90
680;DHT22;322;48.846;9.230;2024-02-26T06:26:16;6.10;99.90
680;DHT22;322;48.846;9.230;2024-02-26T06:28:44;6.10;99.90
680;DHT22;322;48.846;9.230;2024-02-26T06:31:12;6.00;99.90
680;DHT22;322;48.846;9.230;2024-02-26T06:33:40;6.10;99.90
680;DHT22;322;48.846;9.230;2024-02-26T06:36:07;6.10;99.90
680;DHT22;322;48.846;9.230;2024-02-26T06:38:35;6.10;99.90
680;DHT22;322;48.846;9.230;2024-02-26T06:41:04;6.10;99.90
680;DHT22;322;48.846;9.230;2024-02-26T06:43:32;6.00;99.90
680;DHT22;322;48.846;9.230;2024-02-26T06:46:00;6.00;99.90
680;DHT22;322;48.846;9.230;2024-02-26T06:48:28;6.10;99.90
680;DHT22;322;48.846;9.230;2024-02-26T06:50:57;6.00;99.90
680;DHT22;322;48.846;9.230;2024-02-26T06:53:25;6.00;99.90
680;DHT22;322;48.846;9.230;2024-02-26T06:55:53;6.10;99.90
680;DHT22;322;48.846;9.230;2024-02-26T06:58:21;6.10;99.90
680;DHT22;322;48.846;9.230;2024-02-26T07:00:50;6.10;99.90
680;DHT22;322;48.846;9.230;2024-02-26T07:03:18;6.10;99.90
680;DHT22;322;48.846;9.230;2024-02-26T07:05:46;6.40;99.90
680;DHT22;322;48.846;9.230;2024-02-26T07:08:14;6.50;99.90
680;DHT22;322;48.846;9.230;2024-02-26T07:10:42;6.50;99.90
680;DHT22;322;48.846;9.230;2024-02-26T07:13:11;6.50;99.90
680;DHT22;322;48.846;9.230;2024-02-26T07:15:40;6.60;99.90
680;DHT22;322;48.846;9.230;2024-02-26T07:18:08;6.70;99.90
680;DHT22;322;48.846;9.230;2024-02-26T07:20:37;6.90;99.90
680;DHT22;322;48.846;9.230;2024-02-26T07:23:05;6.90;99.90
680;DHT22;322;48.846;9.230;2024-02-26T07:25:33;6.90;99.90
680;DHT22;322;48.846;9.230;2024-02-26T07:28:01;7.10;99.90
680;DHT22;322;48.846;9.230;2024-02-26T07:30:29;7.10;99.90
680;DHT22;322;48.846;9.230;2024-02-26T07:32:58;7.20;99.90
680;DHT22;322;48.846;9.230;2024-02-26T07:35:26;7.20;99.90
680;DHT22;322;48.846;9.230;2024-02-26T07:37:55;7.30;99.90
680;DHT22;322;48.846;9.230;2024-02-26T07:40:23;7.40;99.90
680;DHT22;322;48.846;9.230;2024-02-26T07:42:51;7.40;99.90
680;DHT22;322;48.846;9.230;2024-02-26T07:45:19;7.40;99.90
680;DHT22;322;48.846;9.230;2024-02-26T07:47:47;7.50;99.90
680;DHT22;322;48.846;9.230;2024-02-26T07:50:17;7.60;99.90
680;DHT22;322;48.846;9.230;2024-02-26T07:52:46;7.60;99.90
680;DHT22;322;48.846;9.230;2024-02-26T07:55:14;7.80;99.90
680;DHT22;322;48.846;9.230;2024-02-26T07:57:42;7.80;99.90
680;DHT22;322;48.846;9.230;2024-02-26T08:00:11;8.00;99.90
680;DHT22;322;48.846;9.230;2024-02-26T08:02:43;8.10;99.90
680;DHT22;322;48.846;9.230;2024-02-26T08:05:11;8.20;99.90
680;DHT22;322;48.846;9.230;2024-02-26T08:07:41;8.30;99.90
680;DHT22;322;48.846;9.230;2024-02-26T08:10:09;8.40;99.90
680;DHT22;322;48.846;9.230;2024-02-26T08:12:37;8.40;99.90
680;DHT22;322;48.846;9.230;2024-02-26T08:15:06;8.50;99.90
680;DHT22;322;48.846;9.230;2024-02-26T08:17:34;8.60;99.90
680;DHT22;322;48.846;9.230;2024-02-26T08:20:03;8.70;99.90
680;DHT22;322;48.846;9.230;2024-02-26T08:22:31;8.80;99.90
680;DHT22;322;48.846;9.230;2024-02-26T08:25:01;8.90;99.90
680;DHT22;322;48.846;9.230;2024-02-26T08:27:33;8.90;99.90
680;DHT22;322;48.846;9.230;2024-02-26T08:30:01;9.00;99.90
680;DHT22;322;48.846;9.230;2024-02-26T08:32:29;9.00;99.90
680;DHT22;322;48.846;9.230;2024-02-26T08:34:57;8.90;99.90
680;DHT22;322;48.846;9.230;2024-02-26T08:37:25;8.80;99.90
680;DHT22;322;48.846;9.230;2024-02-26T08:39:53;8.80;99.90
680;DHT22;322;48.846;9.230;2024-02-26T08:42:23;8.80;99.90
680;DHT22;322;48.846;9.230;2024-02-26T08:44:51;8.80;99.90
680;DHT22;322;48.846;9.230;2024-02-26T08:47:21;8.80;99.90
680;DHT22;322;48.846;9.230;2024-02-26T08:49:49;8.80;99.90
680;DHT22;322;48.846;9.230;2024-02-26T08:52:17;8.90;99.90
680;DHT22;322;48.846;9.230;2024-02-26T08:54:45;9.00;99.90
680;DHT22;322;48.846;9.230;2024-02-26T08:57:14;9.10;99.90
680;DHT22;322;48.846;9.230;2024-02-26T08:59:43;9.30;99.90
680;DHT22;322;48.846;9.230;2024-02-26T09:02:13;9.50;99.90
680;DHT22;322;48.846;9.230;2024-02-26T09:04:41;9.70;99.90
680;DHT22;322;48.846;9.230;2024-02-26T09:07:09;9.90;99.90
680;DHT22;322;48.846;9.230;2024-02-26T09:09:37;10.00;99.90
680;DHT22;322;48.846;9.230;2024-02-26T09:12:06;10.00;99.90
680;DHT22;322;48.846;9.230;2024-02-26T09:14:34;9.90;99.90
680;DHT22;322;48.846;9.230;2024-02-26T09:17:03;10.00;99.90
680;DHT22;322;48.846;9.230;2024-02-26T09:19:32;10.00;99.90
680;DHT22;322;48.846;9.230;2024-02-26T09:22:00;9.90;99.90
680;DHT22;322;48.846;9.230;2024-02-26T09:24:28;9.90;99.90
680;DHT22;322;48.846;9.230;2024-02-26T09:26:56;10.00;99.90
680;DHT22;322;48.846;9.230;2024-02-26T09:29:24;10.30;99.90
680;DHT22;322;48.846;9.230;2024-02-26T09:31:54;10.30;99.90
680;DHT22;322;48.846;9.230;2024-02-26T09:34:23;10.30;99.90
680;DHT22;322;48.846;9.230;2024-02-26T09:36:51;10.20;99.90
680;DHT22;322;48.846;9.230;2024-02-26T09:39:25;9.80;99.90
680;DHT22;322;48.846;9.230;2024-02-26T09:41:55;9.70;99.90
680;DHT22;322;48.846;9.230;2024-02-26T09:44:24;9.80;99.90
680;DHT22;322;48.846;9.230;2024-02-26T09:46:53;9.80;99.90
680;DHT22;322;48.846;9.230;2024-02-26T09:49:24;9.70;99.90
680;DHT22;322;48.846;9.230;2024-02-26T09:51:54;9.50;99.90
680;DHT22;322;48.846;9.230;2024-02-26T09:54:25;9.30;99.90
680;DHT22;322;48.846;9.230;2024-02-26T09:57:00;9.50;99.90
680;DHT22;322;48.846;9.230;2024-02-26T09:59:36;9.70;99.90
680;DHT22;322;48.846;9.230;2024-02-26T10:02:09;9.90;99.90
680;DHT22;322;48.846;9.230;2024-02-26T10:04:41;10.10;99.90
680;DHT22;322;48.846;9.230;2024-02-26T10:07:16;10.40;99.90
680;DHT22;322;48.846;9.230;2024-02-26T10:09:44;10.70;99.90
680;DHT22;322;48.846;9.230;2024-02-26T10:12:13;11.10;99.90
680;DHT22;322;48.846;9.230;2024-02-26T10:14:42;11.50;99.90
680;DHT22;322;48.846;9.230;2024-02-26T10:17:10;11.90;99.90
680;DHT22;322;48.846;9.230;2024-02-26T10:19:40;12.20;99.90
680;DHT22;322;48.846;9.230;2024-02-26T10:22:11;12.70;99.90
680;DHT22;322;48.846;9.230;2024-02-26T10:24:39;13.10;99.90
680;DHT22;322;48.846;9.230;2024-02-26T10:27:08;13.40;99.90
680;DHT22;322;48.846;9.230;2024-02-26T10:29:37;13.60;99.90
680;DHT22;322;48.846;9.230;2024-02-26T10:32:05;13.90;99.90
680;DHT22;322;48.846;9.230;2024-02-26T10:34:35;14.40;99.90
680;DHT22;322;48.846;9.230;2024-02-26T10:37:06;14.70;96.40
680;DHT22;322;48.846;9.230;2024-02-26T10:39:36;14.90;95.60
680;DHT22;322;48.846;9.230;2024-02-26T10:42:05;15.00;94.40
680;DHT22;322;48.846;9.230;2024-02-26T10:44:36;15.10;90.80
680;DHT22;322;48.846;9.230;2024-02-26T10:47:07;15.10;91.40
680;DHT22;322;48.846;9.230;2024-02-26T10:49:36;15.40;90.00
680;DHT22;322;48.846;9.230;2024-02-26T10:52:06;15.40;84.50
680;DHT22;322;48.846;9.230;2024-02-26T10:54:36;15.50;82.40
680;DHT22;322;48.846;9.230;2024-02-26T10:57:08;15.50;83.70
680;DHT22;322;48.846;9.230;2024-02-26T10:59:38;15.50;80.70
680;DHT22;322;48.846;9.230;2024-02-26T11:02:08;15.60;78.40
680;DHT22;322;48.846;9.230;2024-02-26T11:04:39;15.90;77.10
680;DHT22;322;48.846;9.230;2024-02-26T11:07:09;16.10;75.40
680;DHT22;322;48.846;9.230;2024-02-26T11:09:37;16.20;75.50
680;DHT22;322;48.846;9.230;2024-02-26T11:12:11;16.50;73.20
680;DHT22;322;48.846;9.230;2024-02-26T11:14:41;16.80;70.80
680;DHT22;322;48.846;9.230;2024-02-26T11:17:13;17.10;70.90
680;DHT22;322;48.846;9.230;2024-02-26T11:19:44;17.50;70.50
680;DHT22;322;48.846;9.230;2024-02-26T11:22:14;17.90;66.60
680;DHT22;322;48.846;9.230;2024-02-26T11:24:50;18.00;65.00
680;DHT22;322;48.846;9.230;2024-02-26T11:27:19;18.40;62.90
680;DHT22;322;48.846;9.230;2024-02-26T11:29:51;18.60;59.40
680;DHT22;322;48.846;9.230;2024-02-26T11:32:21;18.50;60.60
680;DHT22;322;48.846;9.230;2024-02-26T11:34:49;18.20;61.00
680;DHT22;322;48.846;9.230;2024-02-26T11:37:19;17.70;63.40
680;DHT22;322;48.846;9.230;2024-02-26T11:39:48;17.40;63.80
680;DHT22;322;48.846;9.230;2024-02-26T11:42:23;16.90;64.00
680;DHT22;322;48.846;9.230;2024-02-26T11:44:52;16.60;65.50
680;DHT22;322;48.846;9.230;2024-02-26T11:47:21;16.40;65.40
680;DHT22;322;48.846;9.230;2024-02-26T11:49:49;16.50;65.70
680;DHT22;322;48.846;9.230;2024-02-26T11:52:19;16.50;64.30
680;DHT22;322;48.846;9.230;2024-02-26T11:54:48;16.30;64.40
680;DHT22;322;48.846;9.230;2024-02-26T11:57:24;16.30;63.70
680;DHT22;322;48.846;9.230;2024-02-26T11:59:54;16.30;65.70
680;DHT22;322;48.846;9.230;2024-02-26T12:02:43;16.50;66.10
680;DHT22;322;48.846;9.230;2024-02-26T12:05:13;16.50;63.30
680;DHT22;322;48.846;9.230;2024-02-26T12:07:47;16.50;64.60
680;DHT22;322;48.846;9.230;2024-02-26T12:10:25;16.70;65.00
680;DHT22;322;48.846;9.230;2024-02-26T12:12:58;16.80;64.10
680;DHT22;322;48.846;9.230;2024-02-26T12:15:31;16.80;63.20
680;DHT22;322;48.846;9.230;2024-02-26T12:18:01;15.90;62.90
680;DHT22;322;48.846;9.230;2024-02-26T12:20:30;14.90;66.70
680;DHT22;322;48.846;9.230;2024-02-26T12:23:00;14.60;68.70
680;DHT22;322;48.846;9.230;2024-02-26T12:25:29;14.40;70.80
680;DHT22;322;48.846;9.230;2024-02-26T12:27:58;14.40;68.40
680;DHT22;322;48.846;9.230;2024-02-26T12:30:26;14.50;71.00
680;DHT22;322;48.846;9.230;2024-02-26T12:32:57;14.60;70.40
680;DHT22;322;48.846;9.230;2024-02-26T12:35:27;14.80;67.40
680;DHT22;322;48.846;9.230;2024-02-26T12:37:59;14.80;68.90
680;DHT22;322;48.846;9.230;2024-02-26T12:40:28;14.90;69.10
680;DHT22;322;48.846;9.230;2024-02-26T12:42:56;14.80;67.50
680;DHT22;322;48.846;9.230;2024-02-26T12:45:25;14.80;67.60
680;DHT22;322;48.846;9.230;2024-02-26T12:47:55;14.70;68.40
680;DHT22;322;48.846;9.230;2024-02-26T12:50:23;14.60;68.40
680;DHT22;322;48.846;9.230;2024-02-26T12:52:52;14.80;71.90
680;DHT22;322;48.846;9.230;2024-02-26T12:55:22;15.20;68.60
680;DHT22;322;48.846;9.230;2024-02-26T12:57:50;15.50;70.60
680;DHT22;322;48.846;9.230;2024-02-26T13:00:21;15.70;67.00
680;DHT22;322;48.846;9.230;2024-02-26T13:02:51;15.40;67.30
680;DHT22;322;48.846;9.230;2024-02-26T13:05:21;15.30;67.50
680;DHT22;322;48.846;9.230;2024-02-26T13:07:49;15.10;68.50
680;DHT22;322;48.846;9.230;2024-02-26T13:10:19;14.90;68.60
680;DHT22;322;48.846;9.230;2024-02-26T13:12:50;14.80;69.00
680;DHT22;322;48.846;9.230;2024-02-26T13:15:19;14.60;70.60
680;DHT22;322;48.846;9.230;2024-02-26T13:17:48;14.50;71.50
680;DHT22;322;48.846;9.230;2024-02-26T13:20:25;14.60;69.80
680;DHT22;322;48.846;9.230;2024-02-26T13:23:00;14.60;70.80
680;DHT22;322;48.846;9.230;2024-02-26T13:25:28;14.70;73.30
680;DHT22;322;48.846;9.230;2024-02-26T13:28:09;14.70;73.50
680;DHT22;322;48.846;9.230;2024-02-26T13:30:40;14.50;73.40
680;DHT22;322;48.846;9.230;2024-02-26T13:33:09;14.50;72.40
680;DHT22;322;48.846;9.230;2024-02-26T13:35:38;14.40;73.20
680;DHT22;322;48.846;9.230;2024-02-26T13:38:06;14.70;72.50
680;DHT22;322;48.846;9.230;2024-02-26T13:40:35;14.60;71.00
680;DHT22;322;48.846;9.230;2024-02-26T13:43:03;14.50;70.00
680;DHT22;322;48.846;9.230;2024-02-26T13:45:35;14.50;72.50
680;DHT22;322;48.846;9.230;2024-02-26T13:48:05;14.60;74.50
680;DHT22;322;48.846;9.230;2024-02-26T13:50:34;14.70;70.00
680;DHT22;322;48.846;9.230;2024-02-26T13:53:02;14.80;70.00
680;DHT22;322;48.846;9.230;2024-02-26T13:55:31;14.80;69.00
680;DHT22;322;48.846;9.230;2024-02-26T13:58:00;14.70;68.70
680;DHT22;322;48.846;9.230;2024-02-26T14:00:29;14.50;68.50
680;DHT22;322;48.846;9.230;2024-02-26T14:03:02;14.60;69.70
680;DHT22;322;48.846;9.230;2024-02-26T14:05:31;14.80;69.60
680;DHT22;322;48.846;9.230;2024-02-26T14:07:59;14.80;69.30
680;DHT22;322;48.846;9.230;2024-02-26T14:10:27;14.70;69.90
680;DHT22;322;48.846;9.230;2024-02-26T14:12:55;14.90;69.20
680;DHT22;322;48.846;9.230;2024-02-26T14:15:23;15.00;69.60
680;DHT22;322;48.846;9.230;2024-02-26T14:17:52;15.20;69.00
680;DHT22;322;48.846;9.230;2024-02-26T14:20:24;15.20;69.50
680;DHT22;322;48.846;9.230;2024-02-26T14:22:53;15.30;69.50
680;DHT22;322;48.846;9.230;2024-02-26T14:25:22;15.50;70.50
680;DHT22;322;48.846;9.230;2024-02-26T14:27:55;15.50;69.10
680;DHT22;322;48.846;9.230;2024-02-26T14:30:24;15.20;68.50
680;DHT22;322;48.846;9.230;2024-02-26T14:32:52;15.20;70.80
680;DHT22;322;48.846;9.230;2024-02-26T14:35:20;15.30;69.70
680;DHT22;322;48.846;9.230;2024-02-26T14:37:50;15.20;68.80
680;DHT22;322;48.846;9.230;2024-02-26T14:40:18;15.00;68.20
680;DHT22;322;48.846;9.230;2024-02-26T14:42:50;14.90;68.90
680;DHT22;322;48.846;9.230;2024-02-26T14:45:18;15.10;69.30
680;DHT22;322;48.846;9.230;2024-02-26T14:47:46;15.20;69.20
680;DHT22;322;48.846;9.230;2024-02-26T14:50:14;15.30;67.90
680;DHT22;322;48.846;9.230;2024-02-26T14:52:42;14.90;67.10
680;DHT22;322;48.846;9.230;2024-02-26T14:55:12;14.60;68.40
680;DHT22;322;48.846;9.230;2024-02-26T14:57:40;14.40;69.30
680;DHT22;322;48.846;9.230;2024-02-26T15:00:09;14.40;70.50
680;DHT22;322;48.846;9.230;2024-02-26T15:02:37;14.40;71.40
680;DHT22;322;48.846;9.230;2024-02-26T15:05:06;14.30;71.20
680;DHT22;322;48.846;9.230;2024-02-26T15:07:35;14.40;71.10
680;DHT22;322;48.846;9.230;2024-02-26T15:10:07;14.40;71.30
680;DHT22;322;48.846;9.230;2024-02-26T15:12:37;14.40;71.70
680;DHT22;322;48.846;9.230;2024-02-26T15:15:06;14.60;73.50
680;DHT22;322;48.846;9.230;2024-02-26T15:17:34;14.60;74.60
680;DHT22;322;48.846;9.230;2024-02-26T15:20:03;14.70;73.90
680;DHT22;322;48.846;9.230;2024-02-26T15:22:34;14.80;73.70
680;DHT22;322;48.846;9.230;2024-02-26T15:25:02;14.60;71.70
680;DHT22;322;48.846;9.230;2024-02-26T15:27:31;14.60;73.10
680;DHT22;322;48.846;9.230;2024-02-26T15:30:00;14.60;74.30
680;DHT22;322;48.846;9.230;2024-02-26T15:32:28;14.60;74.10
680;DHT22;322;48.846;9.230;2024-02-26T15:34:56;14.60;73.60
680;DHT22;322;48.846;9.230;2024-02-26T15:37:24;14.40;74.70
680;DHT22;322;48.846;9.230;2024-02-26T15:39:52;14.40;75.70
680;DHT22;322;48.846;9.230;2024-02-26T15:42:20;14.30;75.50
680;DHT22;322;48.846;9.230;2024-02-26T15:44:48;14.20;75.60
680;DHT22;322;48.846;9.230;2024-02-26T15:47:17;14.10;76.00
680;DHT22;322;48.846;9.230;2024-02-26T15:49:45;13.90;75.70
680;DHT22;322;48.846;9.230;2024-02-26T15:52:13;13.80;77.50
680;DHT22;322;48.846;9.230;2024-02-26T15:54:41;13.60;76.20
680;DHT22;322;48.846;9.230;2024-02-26T15:57:11;13.50;77.20
680;DHT22;322;48.846;9.230;2024-02-26T15:59:40;13.40;77.50
680;DHT22;322;48.846;9.230;2024-02-26T16:02:08;13.10;78.80
680;DHT22;322;48.846;9.230;2024-02-26T16:04:39;13.00;79.30
680;DHT22;322;48.846;9.230;2024-02-26T16:07:08;13.00;79.50
680;DHT22;322;48.846;9.230;2024-02-26T16:09:50;12.90;80.00
680;DHT22;322;48.846;9.230;2024-02-26T16:12:23;12.90;81.70
680;DHT22;322;48.846;9.230;2024-02-26T16:14:53;12.80;80.70
680;DHT22;322;48.846;9.230;2024-02-26T16:17:24;12.70;80.50
680;DHT22;322;48.846;9.230;2024-02-26T16:19:55;12.60;80.80
680;DHT22;322;48.846;9.230;2024-02-26T16:22:23;12.60;83.00
680;DHT22;322;48.846;9.230;2024-02-26T16:24:51;12.50;80.90
680;DHT22;322;48.846;9.230;2024-02-26T16:27:20;12.50;80.40
680;DHT22;322;48.846;9.230;2024-02-26T16:29:48;12.40;80.40
680;DHT22;322;48.846;9.230;2024-02-26T16:32:16;12.40;79.10
680;DHT22;322;48.846;9.230;2024-02-26T16:34:44;12.30;77.80
680;DHT22;322;48.846;9.230;2024-02-26T16:37:14;12.10;78.20
680;DHT22;322;48.846;9.230;2024-02-26T16:39:42;12.00;78.00
680;DHT22;322;48.846;9.230;2024-02-26T16:42:10;11.90;76.80
680;DHT22;322;48.846;9.230;2024-02-26T16:44:39;11.90;76.20
680;DHT22;322;48.846;9.230;2024-02-26T16:47:07;11.70;77.00
680;DHT22;322;48.846;9.230;2024-02-26T16:49:35;11.70;76.10
680;DHT22;322;48.846;9.230;2024-02-26T16:52:04;11.60;76.70
680;DHT22;322;48.846;9.230;2024-02-26T16:54:33;11.60;76.30
680;DHT22;322;48.846;9.230;2024-02-26T16:57:02;11.40;77.10